Tiempo atmosférico en la estación meteorológica de Cubillas de Rueda, León (916 m.)



Fecha
DESCASC
Temp. máxima en grados centígrados (hora)
DESCASC
Temp. mínima en grados centígrados (hora)
DESCASC
Temp. media en grados centígrados
DESCASC
Racha de viento máxima en m/sg (hora)
DESCASC
Velocidad máxima media en intervalos de 10 minutos(hora)
DESCASC
Precipitaciones diarias en mm
DESCASC
Precipitaciones de 00:00 a 06:00 en mm
DESCASC
Precipitaciones de 06:00 a 12:00 en mm
DESCASC
Precipitaciones de 12:00 a 18:00 en mm
DESCASC
Precipitaciones de 18:00 a 24:00 en mm
DESCASC
23-06-2019 22.9 (13:20) 11.7 (05:00) 17.3 10.83 (15:20) 5.83 (15:20) 0.2 0 0 0.2 0
22-06-2019 26.5 (18:40) 7.4 (06:10) 17 8.61 (16:50) 4.17 (17:10) 0 0 0 0 0
21-06-2019 21.1 (17:40) 6.4 (07:20) 13.8 6.94 (16:30) 3.89 (18:20) 0 0 0 0 0
20-06-2019 22.7 (17:20) 6.8 (00:00) 14.8 11.11 (18:20) 7.78 (18:20) 13.6 0 0 1 12.6
19-06-2019 22.4 (18:20) 13 (00:00) 17.7 8.89 (18:10) 5.28 (18:00) 0 0 0 0 0
18-06-2019 24.3 (15:10) 7.3 (00:00) 15.8 15.28 (18:30) 8.33 (14:50) 0 0 0 0 0
17-06-2019 25.9 (16:40) 7.5 (00:00) 16.7 9.72 (14:00) 5.56 (14:20) 0 0 0 0 0
16-06-2019 25.7 (18:00) 4.7 (00:00) 15.2 9.72 (15:00) 4.44 (00:30) 0 0 0 0 0
15-06-2019 20.7 (19:10) 4.4 (00:00) 12.6 6.94 (23:40) 4.17 (23:59) 0 0 0 0 0
14-06-2019 21.3 (17:30) 1.4 (00:00) 11.3 9.44 (19:00) 5.83 (19:40) 0 0 0 0 0
13-06-2019 21.3 (17:50) 1.4 (00:00) 11.3 10.28 (19:10) 5.28 (19:00) 0 0 0 0 0
12-06-2019 18 (18:10) -2 (-00:0) 8 6.94 (17:20) 4.17 (23:10) 0 0 0 0 0
11-06-2019 14.1 (17:30) 0.9 (00:00) 7.5 12.22 (18:20) 7.78 (18:20) 0 0 0 0 0
10-06-2019 18.4 (16:20) 3.2 (00:00) 10.8 9.17 (20:30) 5.83 (19:50) 0 0 0 0 0
09-06-2019 20.3 (17:00) 4.6 (00:00) 12.4 8.89 (21:10) 6.67 (19:30) 0 0 0 0 0
08-06-2019 21 (18:00) 0.8 (00:00) 10.9 8.89 (16:40) 4.72 (22:40) 0 0 0 0 0
07-06-2019 15.7 (17:40) 4.8 (00:00) 10.3 11.94 (14:20) 6.94 (14:40) 0 0 0 0 0
06-06-2019 16.7 (15:40) 1.6 (00:00) 9.2 15.83 (18:40) 8.61 (18:40) 4.2 0 0 0 4.2
05-06-2019 16.3 (17:30) 5.3 (00:00) 10.8 11.94 (16:00) 6.94 (16:10) 0 0 0 0 0
04-06-2019 20.1 (14:30) 10.6 (00:00) 15.4 11.11 (16:30) 6.67 (16:50) 0 0 0 0 0
03-06-2019 27.1 (17:10) 10.4 (00:00) 18.8 11.67 (19:40) 6.39 (19:10) 0 0 0 0 0
02-06-2019 27.4 (16:30) 10.7 (00:00) 19 8.06 (14:20) 4.44 (13:30) 0 0 0 0 0
01-06-2019 30.6 (17:20) 8.2 (00:00) 19.4 8.89 (14:40) 4.72 (15:20) 0 0 0 0 0
31-05-2019 29.7 (19:10) 5.9 (00:00) 17.8 5.83 (16:40) 3.61 (23:59) 0 0 0 0 0
30-05-2019 28.5 (17:50) 4.2 (00:00) 16.3 7.5 (20:50) 4.72 (21:00) 0 0 0 0 0
29-05-2019 24 (18:50) 3.1 (00:00) 13.5 6.67 (19:00) 4.17 (22:00) 0 0 0 0 0
28-05-2019 18 (15:40) 1 (00:00) 9.5 10.83 (15:00) 7.5 (19:20) 0 0 0 0 0

Gráficas

Temp. máximas Temp. mínimas Temp. medias Precipitaciones Rachas de viento máximas Velocidades máximas media en intervalos de 10 minutos

Datos horarios

Fecha y hora oficial Temperatura (ºC) Velocidad del viento (km/h) Dirección del viento Racha (km/h) Dirección de racha Precipitación (mm) Presión (hPa) Tendencia (hPa) Humedad (%)
2019-06-26 23:00:00 19.4 0 Calma 6 Este 0 -- -- 77
2019-06-26 22:00:00 23.8 0 Calma 9 Oeste 0 -- -- 62
2019-06-26 21:00:00 27 6 Oeste 13 Oeste 0 -- -- 48
2019-06-26 20:00:00 27.8 8 Oeste 15 Oeste 0 -- -- 44
2019-06-26 19:00:00 28.2 4 Noroeste 15 Oeste 0 -- -- 43
2019-06-26 18:00:00 27.8 9 Oeste 19 Oeste 0 -- -- 43
2019-06-26 17:00:00 27.5 11 Oeste 27 Oeste 0 -- -- 45
2019-06-26 16:00:00 27.1 9 Noroeste 26 Sudoeste 0 -- -- 46
2019-06-26 15:00:00 26.5 15 Sudoeste 42 Sur 0 -- -- 46
2019-06-26 14:00:00 26 20 Sudoeste 37 Sudoeste 0 -- -- 46
2019-06-26 13:00:00 25.1 16 Sudoeste 29 Sudoeste 0 -- -- 47
2019-06-26 12:00:00 24.9 13 Sur 27 Sudoeste 0 -- -- 51
2019-06-26 11:00:00 23.7 13 Sur 27 Sudeste 0 -- -- 58
2019-06-26 10:00:00 22.2 14 Sur 28 Sudeste 0 -- -- 65
2019-06-26 09:00:00 20.2 9 Sudeste 22 Este 0 -- -- 74
2019-06-26 08:00:00 17.8 13 Este 24 Este 0 -- -- 84
2019-06-26 07:00:00 14.7 10 Este 15 Este 0 -- -- 95
2019-06-26 06:00:00 13.3 6 Este 7 Este 0 -- -- 94
2019-06-26 05:00:00 14.1 4 Norte 10 Nordeste 0 -- -- 92
2019-06-26 04:00:00 14.4 8 Este 10 Este 0 -- -- 93
2019-06-26 03:00:00 14 5 Este 8 Nordeste 0 -- -- 92
2019-06-26 02:00:00 14.6 6 Nordeste 9 Nordeste 0 -- -- 91
2019-06-26 01:00:00 16.3 4 Nordeste 9 Este 0 -- -- 87
2019-06-26 00:00:00 17.1 8 Este 8 Este 0 -- -- 87
2019-06-25 23:00:00 18.4 5 Este 10 Este 0 -- -- 81
2019-06-25 22:00:00 19.9 7 Este 9 Este 0 -- -- 75
2019-06-25 21:00:00 21.3 2 Noroeste 13 Oeste 0 -- -- 68
2019-06-25 20:00:00 22.1 5 Oeste 11 Sudoeste 0 -- -- 64
2019-06-25 19:00:00 23 8 Sudoeste 15 Oeste 0 -- -- 59
2019-06-25 18:00:00 22.9 7 Oeste 18 Oeste 0 -- -- 58
2019-06-25 17:00:00 22 6 Oeste 18 Oeste 0 -- -- 64
2019-06-25 16:00:00 21.6 8 Oeste 19 Oeste 0 -- -- 67
2019-06-25 15:00:00 19.7 3 Sudoeste 15 Oeste 0 -- -- 74
2019-06-25 14:00:00 19.7 8 Sudeste 17 Sudeste 0 -- -- 73
2019-06-25 13:00:00 17.4 3 Nordeste 15 Este 0.8 -- -- 86
2019-06-25 12:00:00 16.9 6 Este 12 Este 0 -- -- 86
2019-06-25 11:00:00 16.8 6 Este 13 Nordeste 0 -- -- 82
2019-06-25 10:00:00 15.5 4 Norte 9 Norte 0 -- -- 92
2019-06-25 09:00:00 14.3 3 Norte 4 Norte 0 -- -- 93
2019-06-25 08:00:00 13.6 0 Calma 4 Nordeste 0 -- -- 95
2019-06-25 07:00:00 13.3 0 Calma 6 Nordeste 0 -- -- 95
2019-06-25 06:00:00 13.3 2 Norte 6 Nordeste 0 -- -- 95
2019-06-25 05:00:00 13.2 4 Nordeste 6 Nordeste 0 -- -- 95
2019-06-25 04:00:00 13.3 3 Nordeste 5 Sudeste 0 -- -- 94
2019-06-25 03:00:00 13.3 0 Calma 4 Sur 0.2 -- -- 94
2019-06-25 02:00:00 13.3 0 Calma 6 Nordeste 0.2 -- -- 94
2019-06-25 01:00:00 13.4 4 Este 12 Este 0 -- -- 94
2019-06-25 00:00:00 13.6 6 Este 10 Este 0 -- -- 94
2019-06-24 23:00:00 13.6 5 Sudeste 15 Este 1.4 -- -- 94
2019-06-24 22:00:00 13.7 10 Este 19 Este 1.4 -- -- 94
2019-06-24 21:00:00 13.8 3 Sudeste 13 Este 1.4 -- -- 93
2019-06-24 20:00:00 13.9 4 Este 6 Este 5.4 -- -- 93
2019-06-24 19:00:00 14.1 3 Norte 16 Nordeste 3.6 -- -- 92
2019-06-24 18:00:00 14.2 8 Nordeste 13 Nordeste 0 -- -- 87
2019-06-24 17:00:00 14.1 4 Noroeste 15 Oeste 0 -- -- 87
2019-06-24 16:00:00 16.3 9 Noroeste 20 Norte 0 -- -- 70
2019-06-24 15:00:00 16.8 10 Norte 22 Noroeste 0 -- -- 67
2019-06-24 14:00:00 17.3 13 Oeste 24 Oeste 0 -- -- 70
2019-06-24 13:00:00 18.6 11 Oeste 23 Oeste 0 -- -- 66
2019-06-24 12:00:00 19.4 12 Oeste 22 Oeste 0 -- -- 59
2019-06-24 11:00:00 18.1 8 Noroeste 13 Oeste 0 -- -- 74
2019-06-24 10:00:00 16.3 4 Nordeste 9 Nordeste 0 -- -- 80
2019-06-24 09:00:00 15 0 Calma 17 Nordeste 0 -- -- 83
2019-06-24 08:00:00 13.9 2 Nordeste 9 Nordeste 0 -- -- 86
2019-06-24 07:00:00 13.5 6 Nordeste 9 Nordeste 0 -- -- 86
2019-06-24 06:00:00 13.8 9 Este 13 Este 0 -- -- 85
2019-06-24 05:00:00 13.4 4 Noroeste 10 Este 0 -- -- 85
2019-06-24 04:00:00 12.9 4 Sudeste 21 Nordeste 0 -- -- 87
2019-06-24 03:00:00 12.6 6 Este 10 Este 0 -- -- 86
2019-06-24 02:00:00 12.8 6 Nordeste 12 Nordeste 0 -- -- 85
2019-06-24 01:00:00 14.1 5 Nordeste 10 Este 0 -- -- 84
2019-06-24 00:00:00 14.8 5 Nordeste 8 Este 0 -- -- 83
2019-06-23 23:00:00 16.3 4 Norte 12 Nordeste 0 -- -- 79
2019-06-23 22:00:00 17.4 8 Nordeste 10 Nordeste 0 -- -- 75
2019-06-23 21:00:00 18.4 5 Norte 14 Nordeste 0 -- -- 73
2019-06-23 20:00:00 18.7 10 Norte 15 Norte 0 -- -- 69
2019-06-23 19:00:00 18.6 10 Norte 17 Norte 0 -- -- 66
2019-06-23 18:00:00 19.7 4 Sudoeste 17 Sur 0 -- -- 59
2019-06-23 17:00:00 18.7 7 Sudoeste 15 Sudoeste 0.2 -- -- 61
2019-06-23 16:00:00 19 10 Sudoeste 39 Sur 0 -- -- 55
2019-06-23 15:00:00 22 18 Sur 35 Sudoeste 0 -- -- 34
2019-06-23 14:00:00 22.6 14 Sudoeste 34 Sudoeste 0 -- -- 36
2019-06-23 13:00:00 22.5 20 Sur 32 Sur 0 -- -- 34
2019-06-23 12:00:00 21.2 5 Sur 21 Sudeste 0 -- -- 48
2019-06-23 11:00:00 19.2 6 Sur 14 Sur 0 -- -- 52
2019-06-23 10:00:00 17.3 5 Sur 9 Sudeste 0 -- -- 56
2019-06-23 09:00:00 15 4 Noroeste 11 Sudeste 0 -- -- 73
2019-06-23 08:00:00 14 0 Calma 10 Sur 0 -- -- 79
2019-06-23 07:00:00 13.5 5 Sur 8 Sudoeste 0 -- -- 69
2019-06-23 06:00:00 12.9 5 Sur 8 Oeste 0 -- -- 79
2019-06-23 05:00:00 11.7 4 Este 12 Oeste 0 -- -- 84
2019-06-23 04:00:00 12.3 0 Calma 7 Norte 0 -- -- 81
2019-06-23 03:00:00 13.5 3 Norte 8 Nordeste 0 -- -- 76
2019-06-23 02:00:00 13.6 2 Este 6 Nordeste 0 -- -- 76
2019-06-23 01:00:00 15.1 3 Norte 6 Nordeste 0 -- -- 74
2019-06-23 00:00:00 17.7 0 Calma 6 Sur 0 -- -- 63
2019-06-22 23:00:00 20 4 Sur 8 Sudoeste 0 -- -- 51
2019-06-22 22:00:00 21.7 6 Sudoeste 13 Sudeste 0 -- -- 47
2019-06-22 21:00:00 23 8 Sudeste 14 Sudeste 0 -- -- 47
2019-06-22 20:00:00 25.4 9 Sur 19 Sudoeste 0 -- -- 37
2019-06-22 19:00:00 26.3 10 Sudoeste 22 Sudoeste 0 -- -- 34
2019-06-22 18:00:00 25.2 10 Sudoeste 31 Sudoeste 0 -- -- 35
2019-06-22 17:00:00 25.5 13 Sudoeste 31 Sudoeste 0 -- -- 32
2019-06-22 16:00:00 24.7 11 Sudoeste 26 Oeste 0 -- -- 35
2019-06-22 15:00:00 23.9 6 Sudoeste 21 Sudoeste 0 -- -- 36
2019-06-22 14:00:00 23 9 Sur 20 Sur 0 -- -- 41
2019-06-22 13:00:00 21.6 6 Sur 21 Sudoeste 0 -- -- 42
2019-06-22 12:00:00 20 3 Sudeste 14 Sudeste 0 -- -- 51
2019-06-22 11:00:00 18.1 5 Sudeste 14 Este 0 -- -- 57
2019-06-22 10:00:00 15.8 6 Este 15 Sudeste 0 -- -- 67
2019-06-22 09:00:00 11.4 4 Nordeste 12 Nordeste 0 -- -- 86
2019-06-22 08:00:00 9.5 7 Nordeste 10 Nordeste 0 -- -- 93
2019-06-22 07:00:00 8 4 Nordeste 9 Este 0 -- -- 93
2019-06-22 06:00:00 7.7 3 Nordeste 7 Nordeste 0 -- -- 90
2019-06-22 05:00:00 8.7 4 Nordeste 10 Nordeste 0 -- -- 90
2019-06-22 04:00:00 9.6 8 Este 13 Nordeste 0 -- -- 89
2019-06-22 03:00:00 10.4 6 Nordeste 12 Este 0 -- -- 88
2019-06-22 02:00:00 11 7 Este 11 Este 0 -- -- 86
2019-06-22 01:00:00 11.8 7 Este 26 Este 0 -- -- 82
2019-06-22 00:00:00 13 13 Este 25 Sudeste 0 -- -- 79
2019-06-21 23:00:00 14.5 12 Este 22 Este 0 -- -- 73
2019-06-21 22:00:00 16.7 10 Este 22 Sudeste 0 -- -- 64
2019-06-21 21:00:00 19.6 10 Sudeste 20 Sudeste 0 -- -- 52
2019-06-21 20:00:00 20.4 13 Sudeste 24 Sudeste 0 -- -- 50
2019-06-21 19:00:00 20 10 Sudeste 22 Sudeste 0 -- -- 51
2019-06-21 18:00:00 20.1 10 Sur 21 Sudoeste 0 -- -- 53
2019-06-21 17:00:00 19.5 9 Sudeste 25 Este 0 -- -- 51
2019-06-21 16:00:00 20 6 Sudeste 21 Sudeste 0 -- -- 51
2019-06-21 15:00:00 18.4 10 Sudeste 22 Sudeste 0 -- -- 63
2019-06-21 14:00:00 17 5 Este 15 Sudeste 0 -- -- 64
2019-06-21 13:00:00 15.6 6 Sur 17 Sudeste 0 -- -- 69
2019-06-21 12:00:00 16.1 11 Sur 19 Sur 0 -- -- 75
2019-06-21 11:00:00 13.6 8 Sur 14 Sudeste 0 -- -- 88
2019-06-21 10:00:00 12 2 Sudoeste 4 Noroeste 0 -- -- 97
2019-06-21 09:00:00 9.6 3 Este 6 Norte 0 -- -- 98
2019-06-21 08:00:00 7.5 0 Calma 4 Nordeste 0 -- -- 98
2019-06-21 07:00:00 6.6 3 Nordeste 6 Este 0 -- -- 97
2019-06-21 06:00:00 7.1 3 Este 4 Este 0 -- -- 96
2019-06-21 05:00:00 7.2 0 Calma 5 Sudeste 0 -- -- 96
2019-06-21 04:00:00 7.9 3 Este 5 Este 0 -- -- 95
2019-06-21 03:00:00 9.9 3 Norte 6 Este 0 -- -- 96
2019-06-21 02:00:00 11.1 0 Calma 8 Norte 0 -- -- 96
2019-06-21 01:00:00 11.3 5 Norte 13 Este 0 -- -- 96
2019-06-21 00:00:00 11.5 7 Este 21 Este 0 -- -- 95
2019-06-20 23:00:00 11.4 12 Sudeste 23 Sudeste 6.2 -- -- 96
2019-06-20 22:00:00 11.8 14 Sudeste 26 Sur 1.2 -- -- 94
2019-06-20 21:00:00 12.2 14 Norte 22 Norte 0.2 -- -- 93
2019-06-20 20:00:00 13.9 11 Nordeste 35 Nordeste 0.6 -- -- 87
2019-06-20 19:00:00 13.1 13 Este 40 Este 4.4 -- -- 86
2019-06-20 18:00:00 20.1 17 Este 33 Sudeste 0 -- -- 56
2019-06-20 17:00:00 22.2 9 Sur 18 Oeste 0 -- -- 49
2019-06-20 16:00:00 18.7 9 Sudeste 23 Sudoeste 0.8 -- -- 60
2019-06-20 15:00:00 18.9 7 Oeste 16 Sur 0.2 -- -- 65
2019-06-20 14:00:00 20 7 Sudeste 18 Oeste 0 -- -- 51
2019-06-20 13:00:00 19.1 9 Sudoeste 18 Sudoeste 0 -- -- 54
2019-06-20 12:00:00 18 4 Sur 21 Sudeste 0 -- -- 59
2019-06-20 11:00:00 17.9 8 Este 23 Este 0 -- -- 61
2019-06-20 10:00:00 16 6 Este 16 Este 0 -- -- 72
2019-06-20 09:00:00 12.8 5 Norte 8 Norte 0 -- -- 83
2019-06-20 08:00:00 10.3 2 Nordeste 5 Nordeste 0 -- -- 91
2019-06-20 07:00:00 8.9 4 Nordeste 6 Nordeste 0 -- -- 91
2019-06-20 06:00:00 7.3 3 Sudeste 5 Este 0 -- -- 94
2019-06-20 05:00:00 7.8 0 Calma 5 Este 0 -- -- 90
2019-06-20 04:00:00 7.8 2 Sudeste 5 Sudeste 0 -- -- 89
2019-06-20 03:00:00 8.7 6 Este 7 Este 0 -- -- 88
2019-06-20 02:00:00 9.7 3 Este 10 Este 0 -- -- 86
2019-06-20 01:00:00 10.1 6 Este 13 Este 0 -- -- 84
2019-06-20 00:00:00 13 3 Este 10 Norte 0 -- -- 73
2019-06-19 23:00:00 16 7 Norte 14 Noroeste 0 -- -- 67
2019-06-19 22:00:00 17.9 11 Oeste 19 Oeste 0 -- -- 55
2019-06-19 21:00:00 19.7 10 Oeste 27 Sudoeste 0 -- -- 52
2019-06-19 20:00:00 20.9 17 Sudoeste 31 Sudoeste 0 -- -- 44
2019-06-19 19:00:00 20.8 16 Sudoeste 32 Sudoeste 0 -- -- 46
2019-06-19 18:00:00 22.2 19 Oeste 31 Oeste 0 -- -- 45
2019-06-19 17:00:00 21.9 14 Oeste 32 Oeste 0 -- -- 44
2019-06-19 16:00:00 20.7 13 Oeste 24 Sudoeste 0 -- -- 49
2019-06-19 15:00:00 19.9 14 Oeste 25 Oeste 0 -- -- 51
2019-06-19 14:00:00 19.2 14 Sudoeste 26 Oeste 0 -- -- 57
2019-06-19 13:00:00 18.3 12 Sudoeste 25 Sudoeste 0 -- -- 59
2019-06-19 12:00:00 17.5 13 Oeste 24 Sudoeste 0 -- -- 64
2019-06-19 11:00:00 15.7 12 Sudoeste 21 Sudoeste 0 -- -- 78
2019-06-19 10:00:00 14.7 12 Sudoeste 22 Sudoeste 0 -- -- 82
2019-06-19 09:00:00 14.2 14 Sudoeste 25 Sudoeste 0 -- -- 84
2019-06-19 08:00:00 13.4 9 Sudoeste 19 Sudoeste 0 -- -- 91
2019-06-19 07:00:00 13.3 8 Sudoeste 22 Sudoeste 0 -- -- 92
2019-06-19 06:00:00 13.7 8 Sudoeste 17 Sudoeste 0 -- -- 87
2019-06-19 05:00:00 14.1 8 Sudoeste 26 Sudoeste 0 -- -- 84
2019-06-19 04:00:00 14.1 13 Sudoeste 23 Sudoeste 0 -- -- 84
2019-06-19 03:00:00 14.1 9 Sudoeste 21 Oeste 0 -- -- 83
2019-06-19 02:00:00 14.6 10 Sudoeste 22 Sudoeste 0 -- -- 82
2019-06-19 01:00:00 15.2 7 Sudoeste 25 Sudoeste 0 -- -- 78
2019-06-19 00:00:00 15 4 Sur 10 Sur 0 -- -- 80
2019-06-18 23:00:00 15.2 3 Sudoeste 19 Sudoeste 0 -- -- 78
2019-06-18 22:00:00 15.9 16 Sudoeste 33 Sudoeste 0 -- -- 74
2019-06-18 21:00:00 -- -- -- -- -- -- -- -- --
2019-06-18 20:00:00 -- -- -- -- -- -- -- -- --
2019-06-18 19:00:00 -- -- -- -- -- -- -- -- --
2019-06-18 18:00:00 -- -- -- -- -- -- -- -- --
2019-06-18 17:00:00 -- -- -- -- -- -- -- -- --
2019-06-18 16:00:00 22.7 27 Oeste 53 Sudoeste 0 -- -- 41
2019-06-18 15:00:00 24 28 Sudoeste 49 Sudoeste 0 -- -- 32
2019-06-18 14:00:00 23.2 26 Sudoeste 40 Sudoeste 0 -- -- 34
2019-06-18 13:00:00 22.2 24 Sudoeste 38 Sudoeste 0 -- -- 36
2019-06-18 12:00:00 21.2 20 Sudoeste 36 Sudoeste 0 -- -- 33
2019-06-18 11:00:00 20.1 22 Sudoeste 39 Sudoeste 0 -- -- 18
2019-06-18 10:00:00 18.8 12 Sudoeste 21 Oeste 0 -- -- 42
2019-06-18 09:00:00 15 2 Norte 6 Nordeste 0 -- -- 49
2019-06-18 08:00:00 10.3 2 Nordeste 6 Nordeste 0 -- -- 64
2019-06-18 07:00:00 7.6 3 Nordeste 8 Nordeste 0 -- -- 70
2019-06-18 06:00:00 7.5 4 Nordeste 6 Nordeste 0 -- -- 69
2019-06-18 05:00:00 8.6 5 Nordeste 7 Nordeste 0 -- -- 65
2019-06-18 04:00:00 10.6 6 Nordeste 9 Nordeste 0 -- -- 58
2019-06-18 03:00:00 13.5 9 Nordeste 12 Este 0 -- -- 50
2019-06-18 02:00:00 15.3 5 Este 14 Este 0 -- -- 47
2019-06-18 01:00:00 16.2 0 Calma 9 Sudoeste 0 -- -- 45
2019-06-18 00:00:00 18.4 5 Sudoeste 16 Sudoeste 0 -- -- 37
2019-06-17 23:00:00 18.9 5 Sur 15 Oeste 0 -- -- 37
2019-06-17 22:00:00 19.9 9 Oeste 18 Oeste 0 -- -- 35
2019-06-17 21:00:00 21.5 4 Nordeste 17 Noroeste 0 -- -- 32
2019-06-17 20:00:00 22.2 13 Sudoeste 21 Oeste 0 -- -- 26
2019-06-17 19:00:00 23.3 11 Oeste 24 Sudoeste 0 -- -- 25
2019-06-17 18:00:00 24.4 14 Oeste 31 Sudoeste 0 -- -- 26
2019-06-17 17:00:00 25.7 12 Sudoeste 28 Sudoeste 0 -- -- 26
2019-06-17 16:00:00 25.4 15 Sudoeste 32 Oeste 0 -- -- 27
2019-06-17 15:00:00 25.1 18 Sudoeste 32 Sudoeste 0 -- -- 23
2019-06-17 14:00:00 25.1 15 Sudoeste 35 Oeste 0 -- -- 28
2019-06-17 13:00:00 24.2 12 Sur 29 Sur 0 -- -- 32
2019-06-17 12:00:00 22.8 14 Sur 24 Sudoeste 0 -- -- 38
2019-06-17 11:00:00 20.9 6 Sur 13 Sur 0 -- -- 50
2019-06-17 10:00:00 17.9 5 Noroeste 8 Norte 0 -- -- 60
2019-06-17 09:00:00 14.6 6 Nordeste 10 Nordeste 0 -- -- 68
2019-06-17 08:00:00 11.1 6 Nordeste 9 Nordeste 0 -- -- 80
2019-06-17 07:00:00 7.5 3 Este 9 Nordeste 0 -- -- 87
2019-06-17 06:00:00 8 6 Nordeste 9 Nordeste 0 -- -- 87
2019-06-17 05:00:00 8.6 3 Nordeste 7 Nordeste 0 -- -- 83
2019-06-17 04:00:00 9 2 Nordeste 6 Sudeste 0 -- -- 81
2019-06-17 03:00:00 10.5 2 Norte 6 Este 0 -- -- 75
2019-06-17 02:00:00 11.9 4 Este 9 Nordeste 0 -- -- 69
2019-06-17 01:00:00 13.3 4 Nordeste 8 Nordeste 0 -- -- 66
2019-06-17 00:00:00 11.9 3 Nordeste 9 Este 0 -- -- 57
2019-06-16 23:00:00 14.5 4 Nordeste 6 Nordeste 0 -- -- 51
2019-06-16 22:00:00 17 4 Este 6 Este 0 -- -- 47
2019-06-16 21:00:00 22.4 0 Calma 13 Oeste 0 -- -- 34
2019-06-16 20:00:00 23.5 10 Oeste 19 Oeste 0 -- -- 30
2019-06-16 19:00:00 24.4 10 Oeste 22 Oeste 0 -- -- 27
2019-06-16 18:00:00 25.7 12 Sur 21 Sudoeste 0 -- -- 25
2019-06-16 17:00:00 24.7 8 Este 22 Sudoeste 0 -- -- 26
2019-06-16 16:00:00 24.1 10 Sur 22 Oeste 0 -- -- 28
2019-06-16 15:00:00 23.3 9 Sudeste 35 Este 0 -- -- 30
2019-06-16 14:00:00 22.5 6 Noroeste 34 Sudoeste 0 -- -- 33
2019-06-16 13:00:00 21.7 7 Sudeste 24 Sur 0 -- -- 35
2019-06-16 12:00:00 20 5 Sur 23 Sudeste 0 -- -- 41
2019-06-16 11:00:00 18.4 5 Sudeste 13 Sudeste 0 -- -- 44
2019-06-16 10:00:00 16.3 7 Sudeste 13 Sudeste 0 -- -- 54
2019-06-16 09:00:00 11.7 6 Nordeste 10 Nordeste 0 -- -- 74
2019-06-16 08:00:00 8.1 7 Nordeste 10 Nordeste 0 -- -- 85
2019-06-16 07:00:00 4.7 4 Nordeste 8 Nordeste 0 -- -- 90
2019-06-16 06:00:00 5.2 4 Nordeste 6 Nordeste 0 -- -- 90
2019-06-16 05:00:00 5.7 2 Nordeste 8 Nordeste 0 -- -- 88
2019-06-16 04:00:00 6.4 4 Nordeste 6 Nordeste 0 -- -- 87
2019-06-16 03:00:00 8.3 4 Este 10 Este 0 -- -- 81
2019-06-16 02:00:00 9.3 7 Este 19 Este 0 -- -- 80
2019-06-16 01:00:00 10.9 14 Este 25 Este 0 -- -- 76
2019-06-16 00:00:00 12.1 15 Este 25 Sudeste 0 -- -- 69
2019-06-15 23:00:00 13.3 12 Sudeste 14 Sudeste 0 -- -- 48
2019-06-15 22:00:00 16.3 8 Sudeste 9 Sudeste 0 -- -- 45
2019-06-15 21:00:00 20.3 3 Sur 12 Sudoeste 0 -- -- 33
2019-06-15 20:00:00 20.6 6 Sur 20 Oeste 0 -- -- 32
2019-06-15 19:00:00 20.5 10 Sudoeste 24 Sudoeste 0 -- -- 33
2019-06-15 18:00:00 20.3 10 Oeste 23 Sudoeste 0 -- -- 33
2019-06-15 17:00:00 19.8 7 Sur 24 Oeste 0 -- -- 36
2019-06-15 16:00:00 19.1 5 Sudeste 24 Sudoeste 0 -- -- 37
2019-06-15 15:00:00 18 4 Sudeste 20 Sudoeste 0 -- -- 38
2019-06-15 14:00:00 17.3 8 Sudoeste 19 Oeste 0 -- -- 42
2019-06-15 13:00:00 16.2 11 Oeste 22 Oeste 0 -- -- 46
2019-06-15 12:00:00 14.5 10 Sudoeste 16 Sudoeste 0 -- -- 53
2019-06-15 11:00:00 13.7 7 Sur 14 Sur 0 -- -- 59
2019-06-15 10:00:00 12 6 Sur 13 Sur 0 -- -- 66
2019-06-15 09:00:00 9.6 0 Calma 4 Norte 0 -- -- 79
2019-06-15 08:00:00 5.5 2 Nordeste 4 Este 0 -- -- 92
2019-06-15 07:00:00 4.8 0 Calma 5 Sudeste 0 -- -- 89
2019-06-15 06:00:00 6.5 2 Sudeste 4 Este 0 -- -- 87
2019-06-15 05:00:00 8.3 3 Sur 9 Oeste 0 -- -- 83
2019-06-15 04:00:00 8.4 2 Oeste 5 Sudeste 0 -- -- 82
2019-06-15 03:00:00 7 3 Sudeste 4 Sudeste 0 -- -- 85
2019-06-15 02:00:00 7.6 0 Calma 5 Sudeste 0 -- -- 82
2019-06-15 01:00:00 8.4 3 Nordeste 10 Este 0 -- -- 79
2019-06-15 00:00:00 10.7 3 Noroeste 8 Norte 0 -- -- 70
2019-06-14 23:00:00 12 4 Norte 17 Norte 0 -- -- 66
2019-06-14 22:00:00 13.9 9 Norte 22 Norte 0 -- -- 61
2019-06-14 21:00:00 16.4 13 Norte 27 Sudoeste 0 -- -- 53
2019-06-14 20:00:00 18.9 19 Sudoeste 33 Sudoeste 0 -- -- 37
2019-06-14 19:00:00 20.8 21 Sudoeste 34 Sudoeste 0 -- -- 32
2019-06-14 18:00:00 21.2 12 Sudoeste 33 Oeste 0 -- -- 32
2019-06-14 17:00:00 21.1 17 Oeste 34 Oeste 0 -- -- 30
2019-06-14 16:00:00 20.9 17 Oeste 32 Sudoeste 0 -- -- 34
2019-06-14 15:00:00 20 13 Sudoeste 32 Oeste 0 -- -- 35
2019-06-14 14:00:00 19.6 13 Oeste 31 Oeste 0 -- -- 35
2019-06-14 13:00:00 18.8 12 Oeste 22 Oeste 0 -- -- 37
2019-06-14 12:00:00 17.3 7 Oeste 14 Noroeste 0 -- -- 45
2019-06-14 11:00:00 15.2 5 Noroeste 11 Noroeste 0 -- -- 51
2019-06-14 10:00:00 12.7 3 Noroeste 10 Nordeste 0 -- -- 61
2019-06-14 09:00:00 8.8 8 Nordeste 13 Nordeste 0 -- -- 74
2019-06-14 08:00:00 5.2 4 Nordeste 6 Nordeste 0 -- -- 87
2019-06-14 07:00:00 1.5 3 Nordeste 5 Nordeste 0 -- -- 91
2019-06-14 06:00:00 2.1 3 Este 4 Nordeste 0 -- -- 88
2019-06-14 05:00:00 3.2 4 Nordeste 6 Nordeste 0 -- -- 88
2019-06-14 04:00:00 4.3 2 Este 4 Este 0 -- -- 83
2019-06-14 03:00:00 5.6 2 Este 10 Este 0 -- -- 79
2019-06-14 02:00:00 8.6 7 Nordeste 19 Nordeste 0 -- -- 75
2019-06-14 01:00:00 8.8 8 Nordeste 19 Nordeste 0 -- -- 71
2019-06-14 00:00:00 9.4 8 Este 14 Este 0 -- -- 66
2019-06-13 23:00:00 12.7 7 Norte 15 Norte 0 -- -- 54
2019-06-13 22:00:00 15.8 7 Sudoeste 20 Sudoeste 0 -- -- 34
2019-06-13 21:00:00 18.7 10 Oeste 28 Oeste 0 -- -- 30
2019-06-13 20:00:00 20 17 Oeste 37 Oeste 0 -- -- 25
2019-06-13 19:00:00 20.8 19 Sudoeste 35 Oeste 0 -- -- 24
2019-06-13 18:00:00 20.9 12 Sudoeste 32 Sudoeste 0 -- -- 30
2019-06-13 17:00:00 20.4 14 Oeste 30 Oeste 0 -- -- 32
2019-06-13 16:00:00 19.4 13 Oeste 35 Oeste 0 -- -- 34
2019-06-13 15:00:00 18.8 13 Oeste 33 Sudoeste 0 -- -- 37
2019-06-13 14:00:00 18.2 17 Sudoeste 31 Sudoeste 0 -- -- 36
2019-06-13 13:00:00 17.4 13 Sudoeste 24 Sudoeste 0 -- -- 38
2019-06-13 12:00:00 16 11 Sur 17 Sudoeste 0 -- -- 45
2019-06-13 11:00:00 14 7 Sur 14 Sudoeste 0 -- -- 55
2019-06-13 10:00:00 11.8 3 Norte 8 Oeste 0 -- -- 64
2019-06-13 09:00:00 8.1 4 Norte 12 Nordeste 0 -- -- 74
2019-06-13 08:00:00 4.7 5 Nordeste 8 Nordeste 0 -- -- 86
2019-06-13 07:00:00 1.4 4 Nordeste 8 Nordeste 0 -- -- 91
2019-06-13 06:00:00 2.3 2 Nordeste 8 Nordeste 0 -- -- 90
2019-06-13 05:00:00 1.9 4 Este 7 Este 0 -- -- 88
2019-06-13 04:00:00 3.1 3 Este 8 Nordeste 0 -- -- 86
2019-06-13 03:00:00 4.4 8 Este 12 Este 0 -- -- 86
2019-06-13 02:00:00 4.8 4 Este 6 Este 0 -- -- 81
2019-06-13 01:00:00 8.4 3 Nordeste 17 Nordeste 0 -- -- 70
2019-06-13 00:00:00 9.6 6 Este 24 Este 0 -- -- 64
2019-06-12 23:00:00 11.3 12 Este 23 Este 0 -- -- 44
2019-06-12 22:00:00 14.5 9 Sudeste 15 Sudeste 0 -- -- 37
2019-06-12 21:00:00 17.1 7 Sur 23 Sudoeste 0 -- -- 31
2019-06-12 20:00:00 18 11 Sudoeste 23 Sudoeste 0 -- -- 30
2019-06-12 19:00:00 17.1 11 Sudoeste 23 Oeste 0 -- -- 30
2019-06-12 18:00:00 17.6 8 Sudoeste 25 Sudoeste 0 -- -- 28
2019-06-12 17:00:00 17.4 5 Sur 22 Sudoeste 0 -- -- 29
2019-06-12 16:00:00 16.5 10 Oeste 23 Oeste 0 -- -- 32
2019-06-12 15:00:00 15.7 9 Sudoeste 23 Sudoeste 0 -- -- 36
2019-06-12 14:00:00 14.6 9 Oeste 22 Sudoeste 0 -- -- 41
2019-06-12 13:00:00 14 9 Sudoeste 21 Sudoeste 0 -- -- 42
2019-06-12 12:00:00 12.7 7 Oeste 19 Sudoeste 0 -- -- 45
2019-06-12 11:00:00 10.6 6 Sudoeste 24 Oeste 0 -- -- 49
2019-06-12 10:00:00 8.5 6 Oeste 12 Oeste 0 -- -- 60
2019-06-12 09:00:00 5.4 3 Noroeste 7 Nordeste 0 -- -- 71
2019-06-12 08:00:00 1.6 0 Calma 4 Nordeste 0 -- -- 86
2019-06-12 07:00:00 -1.8 0 Calma 4 Este 0 -- -- 90
2019-06-12 06:00:00 -1.4 2 Sur 6 Oeste 0 -- -- 88
2019-06-12 05:00:00 -0.1 4 Sudoeste 6 Sudoeste 0 -- -- 90
2019-06-12 04:00:00 0.7 2 Sudeste 9 Nordeste 0 -- -- 86
2019-06-12 03:00:00 2.2 7 Norte 11 Nordeste 0 -- -- 85
2019-06-12 02:00:00 1.5 3 Norte 7 Norte 0 -- -- 84
2019-06-12 01:00:00 3.2 6 Norte 9 Norte 0 -- -- 82
2019-06-12 00:00:00 3.9 3 Este 10 Norte 0 -- -- 75
2019-06-11 23:00:00 7.5 8 Norte 17 Norte 0 -- -- 65
2019-06-11 22:00:00 8.8 13 Norte 24 Nordeste 0 -- -- 59
2019-06-11 21:00:00 11.3 17 Norte 33 Norte 0 -- -- 52
2019-06-11 20:00:00 12.6 20 Norte 39 Norte 0 -- -- 47
2019-06-11 19:00:00 12.7 26 Norte 44 Norte 0 -- -- 50
2019-06-11 18:00:00 13.3 24 Norte 37 Norte 0 -- -- 46
2019-06-11 17:00:00 13.8 22 Norte 41 Norte 0 -- -- 45
2019-06-11 16:00:00 13.2 21 Norte 38 Norte 0 -- -- 47
2019-06-11 15:00:00 14 21 Norte 41 Norte 0 -- -- 44
2019-06-11 14:00:00 13.3 22 Norte 40 Norte 0 -- -- 46
2019-06-11 13:00:00 12.2 24 Norte 42 Norte 0 -- -- 44
2019-06-11 12:00:00 11.6 24 Norte 38 Noroeste 0 -- -- 48
2019-06-11 11:00:00 10.5 17 Norte 35 Norte 0 -- -- 56
2019-06-11 10:00:00 9.6 18 Norte 30 Norte 0 -- -- 56
2019-06-11 09:00:00 8.4 7 Norte 15 Norte 0 -- -- 63
2019-06-11 08:00:00 5.9 9 Norte 17 Norte 0 -- -- 79
2019-06-11 07:00:00 0.9 3 Este 8 Este 0 -- -- 90
2019-06-11 06:00:00 1.9 0 Calma 6 Sudeste 0 -- -- 87
2019-06-11 05:00:00 3.4 3 Sur 8 Oeste 0 -- -- 85
2019-06-11 04:00:00 4.7 0 Calma 10 Noroeste 0 -- -- 77
2019-06-11 03:00:00 7.5 7 Norte 17 Norte 0 -- -- 72
2019-06-11 02:00:00 8.6 6 Norte 21 Norte 0 -- -- 69
2019-06-11 01:00:00 9.7 13 Norte 20 Norte 0 -- -- 64
2019-06-11 00:00:00 10.3 8 Norte 17 Norte 0 -- -- 65
2019-06-10 23:00:00 10.9 8 Nordeste 19 Nordeste 0 -- -- 68
2019-06-10 22:00:00 11.4 14 Nordeste 22 Nordeste 0 -- -- 67
2019-06-10 21:00:00 12.9 11 Nordeste 33 Nordeste 0 -- -- 62
2019-06-10 20:00:00 14.1 18 Este 28 Nordeste 0 -- -- 59
2019-06-10 19:00:00 17.4 8 Norte 19 Oeste 0 -- -- 42
2019-06-10 18:00:00 17.8 7 Noroeste 20 Oeste 0 -- -- 38
2019-06-10 17:00:00 17.8 7 Sudoeste 28 Sudoeste 0 -- -- 36
2019-06-10 16:00:00 17.3 10 Sur 23 Oeste 0 -- -- 40
2019-06-10 15:00:00 16.5 10 Sur 19 Sur 0 -- -- 43
2019-06-10 14:00:00 15.3 8 Sudoeste 18 Sur 0 -- -- 44
2019-06-10 13:00:00 14.6 7 Sur 21 Oeste 0 -- -- 49
2019-06-10 12:00:00 13.5 4 Sur 17 Sudoeste 0 -- -- 53
2019-06-10 11:00:00 11.8 4 Sudeste 10 Oeste 0 -- -- 58
2019-06-10 10:00:00 9.4 5 Noroeste 11 Oeste 0 -- -- 76
2019-06-10 09:00:00 7.6 3 Norte 7 Este 0 -- -- 85
2019-06-10 08:00:00 6.1 4 Nordeste 6 Nordeste 0 -- -- 92
2019-06-10 07:00:00 4.9 0 Calma 8 Norte 0 -- -- 93
2019-06-10 06:00:00 4.2 4 Nordeste 6 Nordeste 0 -- -- 93
2019-06-10 05:00:00 3.4 0 Calma 7 Sudeste 0 -- -- 89
2019-06-10 04:00:00 3.3 6 Sudeste 11 Sudeste 0 -- -- 89
2019-06-10 03:00:00 4.6 0 Calma 6 Este 0 -- -- 84
2019-06-10 02:00:00 5.5 3 Este 10 Norte 0 -- -- 80
2019-06-10 01:00:00 7.4 4 Nordeste 13 Nordeste 0 -- -- 76
2019-06-10 00:00:00 9.4 6 Norte 15 Nordeste 0 -- -- 71
2019-06-09 23:00:00 10.7 10 Nordeste 24 Norte 0 -- -- 67
2019-06-09 22:00:00 11.8 15 Norte 32 Nordeste 0 -- -- 63
2019-06-09 21:00:00 14.4 19 Norte 30 Norte 0 -- -- 57
2019-06-09 20:00:00 16.4 20 Norte 31 Nordeste 0 -- -- 52
2019-06-09 19:00:00 17 22 Nordeste 30 Nordeste 0 -- -- 52
2019-06-09 18:00:00 19 19 Norte 28 Norte 0 -- -- 45
2019-06-09 17:00:00 20.3 13 Sudoeste 32 Sudoeste 0 -- -- 36
2019-06-09 16:00:00 18.5 10 Sudoeste 24 Oeste 0 -- -- 41
2019-06-09 15:00:00 18.8 13 Sudoeste 28 Oeste 0 -- -- 43
2019-06-09 14:00:00 17.9 9 Sudoeste 23 Sudoeste 0 -- -- 48
2019-06-09 13:00:00 17.2 10 Sudoeste 22 Oeste 0 -- -- 50
2019-06-09 12:00:00 15.9 8 Sudoeste 17 Oeste 0 -- -- 56
2019-06-09 11:00:00 15.2 3 Norte 10 Sur 0 -- -- 62
2019-06-09 10:00:00 11.9 4 Noroeste 8 Norte 0 -- -- 73
2019-06-09 09:00:00 8.9 3 Norte 6 Norte 0 -- -- 84
2019-06-09 08:00:00 6.3 3 Este 5 Este 0 -- -- 93
2019-06-09 07:00:00 4.9 2 Este 4 Sudeste 0 -- -- 89
2019-06-09 06:00:00 6.1 0 Calma 6 Norte 0 -- -- 88
2019-06-09 05:00:00 7.1 5 Nordeste 9 Nordeste 0 -- -- 87
2019-06-09 04:00:00 6.2 3 Sudeste 5 Sur 0 -- -- 87
2019-06-09 03:00:00 7.6 0 Calma 6 Sudoeste 0 -- -- 81
2019-06-09 02:00:00 10.2 0 Calma 6 Nordeste 0 -- -- 74
2019-06-09 01:00:00 11.2 5 Nordeste 13 Nordeste 0 -- -- 71
2019-06-09 00:00:00 11.6 8 Nordeste 17 Nordeste 0 -- -- 68
2019-06-08 23:00:00 13.3 14 Nordeste 26 Nordeste 0 -- -- 61
2019-06-08 22:00:00 16.3 7 Nordeste 22 Norte 0 -- -- 46
2019-06-08 21:00:00 17.8 5 Norte 10 Noroeste 0 -- -- 38
2019-06-08 20:00:00 18.8 6 Noroeste 23 Noroeste 0 -- -- 34
2019-06-08 19:00:00 19.7 12 Oeste 24 Sudoeste 0 -- -- 31
2019-06-08 18:00:00 21 10 Sudoeste 24 Sur 0 -- -- 26
2019-06-08 17:00:00 20.6 13 Sur 32 Sudoeste 0 -- -- 27
2019-06-08 16:00:00 19.5 6 Sudoeste 26 Sur 0 -- -- 32
2019-06-08 15:00:00 18.4 7 Sudoeste 23 Sudeste 0 -- -- 34
2019-06-08 14:00:00 17.9 10 Sur 26 Sudeste 0 -- -- 37
2019-06-08 13:00:00 16.6 9 Sudeste 23 Sudeste 0 -- -- 42
2019-06-08 12:00:00 15 10 Sudeste 25 Sudeste 0 -- -- 48
2019-06-08 11:00:00 13.4 8 Este 22 Este 0 -- -- 56
2019-06-08 10:00:00 11.2 13 Sudeste 23 Este 0 -- -- 68
2019-06-08 09:00:00 7.8 6 Nordeste 15 Este 0 -- -- 84
2019-06-08 08:00:00 4.2 0 Calma 6 Nordeste 0 -- -- 94
2019-06-08 07:00:00 1.7 3 Nordeste 5 Nordeste 0 -- -- 93
2019-06-08 06:00:00 1.3 0 Calma 6 Sudeste 0 -- -- 94
2019-06-08 05:00:00 1.2 0 Calma 5 Este 0 -- -- 91
2019-06-08 04:00:00 0.8 3 Este 4 Nordeste -- -- -- 90
2019-06-08 03:00:00 1.5 3 Nordeste 8 Este 0 -- -- 91
2019-06-08 02:00:00 2.4 3 Nordeste 8 Este 0 -- -- 89
2019-06-08 01:00:00 3.9 3 Nordeste 6 Sudoeste 0 -- -- 85
2019-06-08 00:00:00 5.6 2 Sur 8 Sudoeste 0 -- -- 76
2019-06-07 23:00:00 8.4 5 Oeste 9 Sudoeste 0 -- -- 66
2019-06-07 22:00:00 10.5 5 Oeste 20 Oeste 0 -- -- 59
2019-06-07 21:00:00 13.2 14 Oeste 24 Oeste 0 -- -- 48
2019-06-07 20:00:00 14.9 13 Noroeste 34 Oeste 0 -- -- 40
2019-06-07 19:00:00 15.3 17 Oeste 32 Noroeste 0 -- -- 42
2019-06-07 18:00:00 14.8 16 Oeste 32 Noroeste 0 -- -- 41
2019-06-07 17:00:00 14.4 19 Oeste 40 Noroeste 0 -- -- 38
2019-06-07 16:00:00 14.5 21 Oeste 39 Oeste 0 -- -- 38
2019-06-07 15:00:00 13.6 23 Oeste 43 Oeste 0 -- -- 43
2019-06-07 14:00:00 12.7 20 Oeste 38 Oeste 0 -- -- 50
2019-06-07 13:00:00 12.1 18 Oeste 35 Oeste 0 -- -- 55
2019-06-07 12:00:00 10.9 19 Oeste 35 Oeste 0 -- -- 58
2019-06-07 11:00:00 9.5 22 Oeste 36 Oeste 0 -- -- 64
2019-06-07 10:00:00 8.2 19 Oeste 35 Oeste 0 -- -- 69
2019-06-07 09:00:00 6.4 14 Oeste 28 Sudoeste 0 -- -- 79
2019-06-07 08:00:00 5.4 14 Oeste 29 Oeste 0 -- -- 83
2019-06-07 07:00:00 5.1 14 Oeste 29 Sudoeste 0 -- -- 83
2019-06-07 06:00:00 5.1 18 Oeste 30 Oeste 0 -- -- 84
2019-06-07 05:00:00 5.7 13 Sudoeste 28 Sudoeste 0 -- -- 87
2019-06-07 04:00:00 5.9 11 Sudoeste 28 Sudoeste 0 -- -- 92
2019-06-07 03:00:00 6 11 Sudoeste 24 Oeste 0 -- -- 93
2019-06-07 02:00:00 6.8 14 Sudoeste 28 Sudoeste 0 -- -- 92
2019-06-07 01:00:00 7.4 15 Oeste 29 Sudoeste 0 -- -- 91
2019-06-07 00:00:00 8.1 7 Oeste 16 Oeste 0 -- -- 91
2019-06-06 23:00:00 8.3 5 Oeste 31 Oeste 0.6 -- -- 88
2019-06-06 22:00:00 9.8 22 Sudoeste 49 Sudoeste 1.6 -- -- 90
2019-06-06 21:00:00 11 16 Sudoeste 32 Sudoeste 0.6 -- -- 87
2019-06-06 20:00:00 11 15 Sudoeste 49 Sudoeste 1.4 -- -- 88
2019-06-06 19:00:00 15 27 Sudoeste 57 Sudoeste 0 -- -- 53
2019-06-06 18:00:00 16.2 24 Sudoeste 50 Sudoeste 0 -- -- 41
2019-06-06 17:00:00 15.9 21 Sudoeste 41 Sudoeste 0 -- -- 39
2019-06-06 16:00:00 16 24 Sudoeste 49 Sur 0 -- -- 38
2019-06-06 15:00:00 15.4 21 Sur 40 Sur 0 -- -- 40
2019-06-06 14:00:00 14 21 Sudoeste 38 Sur 0 -- -- 44
2019-06-06 13:00:00 14.3 15 Sudoeste 35 Sur 0 -- -- 43
2019-06-06 12:00:00 12.5 15 Sudoeste 29 Sudoeste 0 -- -- 49
2019-06-06 11:00:00 10.9 13 Sudoeste 27 Sudoeste 0 -- -- 54
2019-06-06 10:00:00 9.1 6 Sudeste 15 Sur 0 -- -- 67
2019-06-06 09:00:00 6.5 8 Sudeste 15 Sudeste 0 -- -- 84
2019-06-06 08:00:00 4 3 Norte 4 Nordeste 0 -- -- 92
2019-06-06 07:00:00 1.6 0 Calma 6 Norte 0 -- -- 90
2019-06-06 06:00:00 2.5 0 Calma 5 Norte 0 -- -- 89
2019-06-06 05:00:00 2.7 2 Este 4 Este 0 -- -- 88
2019-06-06 04:00:00 4 0 Calma 4 Nordeste 0 -- -- 86
2019-06-06 03:00:00 5.1 0 Calma 10 Sudeste 0 -- -- 85
2019-06-06 02:00:00 6.5 4 Este 8 Este 0 -- -- 81
2019-06-06 01:00:00 7.1 2 Este 8 Norte 0 -- -- 71
2019-06-06 00:00:00 8.5 0 Calma 9 Oeste 0 -- -- 60
2019-06-05 23:00:00 9.5 5 Noroeste 14 Oeste 0 -- -- 56
2019-06-05 22:00:00 10.3 9 Noroeste 26 Oeste 0 -- -- 58
2019-06-05 21:00:00 11.9 15 Oeste 27 Oeste 0 -- -- 52
2019-06-05 20:00:00 13.3 13 Oeste 31 Oeste 0 -- -- 46
2019-06-05 19:00:00 16.2 14 Oeste 37 Oeste 0 -- -- 35
2019-06-05 18:00:00 15.7 24 Oeste 42 Noroeste 0 -- -- 36
2019-06-05 17:00:00 15.8 22 Oeste 40 Oeste 0 -- -- 35
2019-06-05 16:00:00 16.2 22 Oeste 43 Oeste 0 -- -- 37
2019-06-05 15:00:00 13.1 10 Noroeste 35 Oeste 0 -- -- 52
2019-06-05 14:00:00 13.9 5 Oeste 24 Noroeste 0 -- -- 52
2019-06-05 13:00:00 13.1 12 Oeste 24 Oeste 0 -- -- 51
2019-06-05 12:00:00 12.9 13 Oeste 23 Noroeste 0 -- -- 46
2019-06-05 11:00:00 11.7 10 Norte 20 Oeste 0 -- -- 56
2019-06-05 10:00:00 10 9 Oeste 15 Oeste 0 -- -- 63
2019-06-05 09:00:00 8.8 6 Norte 10 Noroeste 0 -- -- 71
2019-06-05 08:00:00 6.9 2 Sudoeste 5 Oeste 0 -- -- 84
2019-06-05 07:00:00 5.5 0 Calma 4 Sur 0 -- -- 86
2019-06-05 06:00:00 6.1 0 Calma 8 Oeste 0 -- -- 81
2019-06-05 05:00:00 6.2 5 Oeste 8 Oeste 0 -- -- 84
2019-06-05 04:00:00 7.4 4 Noroeste 8 Oeste 0 -- -- 79
2019-06-05 03:00:00 8.3 0 Calma 10 Norte 0 -- -- 77
2019-06-05 02:00:00 9.2 3 Norte 10 Norte 0 -- -- 75
2019-06-05 01:00:00 9.8 4 Noroeste 9 Noroeste 0 -- -- 73
2019-06-05 00:00:00 10.8 5 Norte 13 Norte 0 -- -- 71
2019-06-04 23:00:00 12 6 Oeste 14 Oeste 0 -- -- 56
2019-06-04 22:00:00 13.9 8 Oeste 20 Oeste 0 -- -- 48
2019-06-04 21:00:00 15.5 6 Oeste 24 Oeste 0 -- -- 48
2019-06-04 20:00:00 16.8 12 Noroeste 26 Noroeste 0 -- -- 49
2019-06-04 19:00:00 17.5 18 Noroeste 34 Oeste 0 -- -- 47
2019-06-04 18:00:00 17.9 21 Oeste 36 Oeste 0 -- -- 52
2019-06-04 17:00:00 18.3 21 Oeste 40 Sudoeste 0 -- -- 53
2019-06-04 16:00:00 19.5 17 Oeste 34 Sudoeste 0 -- -- 52
2019-06-04 15:00:00 19.5 10 Oeste 36 Sudoeste 0 -- -- 46
2019-06-04 14:00:00 19.9 12 Sudoeste 27 Oeste 0 -- -- 46
2019-06-04 13:00:00 18.9 11 Sudoeste 25 Sudoeste 0 -- -- 50
2019-06-04 12:00:00 17.1 6 Sur 18 Oeste 0 -- -- 58
2019-06-04 11:00:00 14.4 8 Oeste 16 Sudoeste 0 -- -- 71
2019-06-04 10:00:00 12.5 9 Oeste 14 Oeste 0 -- -- 80
2019-06-04 09:00:00 11.8 6 Sur 12 Sur 0 -- -- 81
2019-06-04 08:00:00 11.2 5 Sudoeste 10 Sudoeste 0 -- -- 83
2019-06-04 07:00:00 10.6 4 Sudoeste 14 Sudoeste 0 -- -- 85
2019-06-04 06:00:00 11.3 6 Sudoeste 15 Sudoeste 0 -- -- 82
2019-06-04 05:00:00 12.3 9 Sudoeste 21 Sudoeste 0 -- -- 78
2019-06-04 04:00:00 13.5 10 Sudoeste 20 Sudoeste 0 -- -- 71
2019-06-04 03:00:00 14.6 12 Sudoeste 22 Sudoeste 0 -- -- 68
2019-06-04 02:00:00 15.8 10 Sudoeste 18 Sudoeste 0 -- -- 68
2019-06-04 01:00:00 16.3 8 Sudoeste 13 Sudoeste 0 -- -- 71
2019-06-04 00:00:00 15.8 4 Sur 7 Sudoeste 0 -- -- 65
2019-06-03 23:00:00 18.6 4 Sudoeste 20 Oeste 0 -- -- 54
2019-06-03 22:00:00 21.6 12 Oeste 25 Oeste 0 -- -- 44
2019-06-03 21:00:00 23.3 13 Sudoeste 36 Sudoeste 0 -- -- 42
2019-06-03 20:00:00 24.8 21 Sudoeste 42 Sudoeste 0 -- -- 36
2019-06-03 19:00:00 26 22 Sudoeste 37 Sudoeste 0 -- -- 36
2019-06-03 18:00:00 26.8 21 Sudoeste 36 Sudoeste 0 -- -- 35
2019-06-03 17:00:00 26.9 18 Oeste 33 Oeste 0 -- -- 35
2019-06-03 16:00:00 26.1 8 Oeste 32 Oeste 0 -- -- 37
2019-06-03 15:00:00 25.2 13 Oeste 29 Oeste 0 -- -- 36
2019-06-03 14:00:00 23.7 12 Sudoeste 22 Sudoeste 0 -- -- 38
2019-06-03 13:00:00 22.8 12 Sudoeste 22 Oeste 0 -- -- 37
2019-06-03 12:00:00 22.4 5 Sudoeste 17 Oeste 0 -- -- 38
2019-06-03 11:00:00 20.4 6 Sur 12 Oeste 0 -- -- 45
2019-06-03 10:00:00 18.5 4 Sur 11 Sudeste 0 -- -- 55
2019-06-03 09:00:00 15.6 0 Calma 3 Norte 0 -- -- 66
2019-06-03 08:00:00 12.2 0 Calma 8 Este 0 -- -- 75
2019-06-03 07:00:00 11.2 2 Este 8 Nordeste 0 -- -- 72
2019-06-03 06:00:00 12.2 4 Nordeste 9 Sudeste 0 -- -- 69
2019-06-03 05:00:00 13.6 3 Sudoeste 13 Noroeste 0 -- -- 64
2019-06-03 04:00:00 14 6 Nordeste 9 Nordeste 0 -- -- 60
2019-06-03 03:00:00 12.9 5 Este 8 Este 0 -- -- 64
2019-06-03 02:00:00 14 0 Calma 3 Este 0 -- -- 60
2019-06-03 01:00:00 14.8 0 Calma 4 Sur 0 -- -- 56
2019-06-03 00:00:00 15.4 2 Sudeste 3 Sur 0 -- -- 57
2019-06-02 23:00:00 15.9 0 Calma 3 Este 0 -- -- 53
2019-06-02 22:00:00 20.1 0 Calma 8 Oeste 0 -- -- 43
2019-06-02 21:00:00 23.6 4 Oeste 19 Noroeste 0 -- -- 32
2019-06-02 20:00:00 25.4 5 Noroeste 15 Norte 0 -- -- 29
2019-06-02 19:00:00 26.9 9 Norte 14 Norte 0 -- -- 26
2019-06-02 18:00:00 26.8 7 Oeste 17 Oeste 0 -- -- 27
2019-06-02 17:00:00 26.7 11 Sudoeste 24 Sudoeste 0 -- -- 23
2019-06-02 16:00:00 27.1 15 Oeste 26 Sudoeste 0 -- -- 23
2019-06-02 15:00:00 26.4 11 Sudoeste 29 Oeste 0 -- -- 24
2019-06-02 14:00:00 26.3 14 Oeste 27 Oeste 0 -- -- 26
2019-06-02 13:00:00 24.6 15 Sudoeste 22 Sudoeste 0 -- -- 29
2019-06-02 12:00:00 24.4 8 Sudoeste 14 Sur 0 -- -- 37
2019-06-02 11:00:00 22.9 6 Oeste 14 Sudoeste 0 -- -- 40
2019-06-02 10:00:00 20.4 5 Sur 10 Sudoeste 0 -- -- 49
2019-06-02 09:00:00 15.9 2 Nordeste 5 Norte 0 -- -- 66
2019-06-02 08:00:00 14 4 Nordeste 6 Nordeste 0 -- -- 71
2019-06-02 07:00:00 10.7 4 Este 8 Este 0 -- -- 79
2019-06-02 06:00:00 10.9 4 Este 11 Nordeste 0 -- -- 78
2019-06-02 05:00:00 11.1 7 Nordeste 12 Nordeste 0 -- -- 77
2019-06-02 04:00:00 11.4 5 Nordeste 10 Este 0 -- -- 75
2019-06-02 03:00:00 12.9 5 Este 8 Nordeste 0 -- -- 69
2019-06-02 02:00:00 14.8 5 Nordeste 12 Nordeste 0 -- -- 63
2019-06-02 01:00:00 16.1 3 Este 12 Este 0 -- -- 60
2019-06-02 00:00:00 16.5 2 Este 8 Oeste 0 -- -- 60
2019-06-01 23:00:00 21.7 0 Calma 15 Sudoeste 0 -- -- 45
2019-06-01 22:00:00 24.2 7 Sur 11 Sudoeste 0 -- -- 34
2019-06-01 21:00:00 27.9 3 Sur 13 Sur 0 -- -- 33
2019-06-01 20:00:00 30 5 Sudoeste 20 Oeste 0 -- -- 24
2019-06-01 19:00:00 30.2 11 Sudoeste 23 Sudoeste 0 -- -- 24
2019-06-01 18:00:00 30.4 9 Oeste 20 Noroeste 0 -- -- 24
2019-06-01 17:00:00 30.2 12 Oeste 26 Sudoeste 0 -- -- 24
2019-06-01 16:00:00 29.4 12 Sudoeste 32 Oeste 0 -- -- 23
2019-06-01 15:00:00 28.9 16 Oeste 32 Oeste 0 -- -- 22
2019-06-01 14:00:00 28.4 10 Oeste 24 Sudoeste 0 -- -- 25
2019-06-01 13:00:00 27.7 6 Oeste 17 Sudoeste 0 -- -- 28
2019-06-01 12:00:00 26.3 8 Sudoeste 17 Oeste 0 -- -- 30
2019-06-01 11:00:00 24.2 5 Norte 10 Norte 0 -- -- 41
2019-06-01 10:00:00 20.6 8 Nordeste 12 Norte 0 -- -- 50
2019-06-01 09:00:00 16.3 7 Nordeste 11 Nordeste 0 -- -- 61
2019-06-01 08:00:00 12.1 4 Nordeste 8 Nordeste 0 -- -- 72
2019-06-01 07:00:00 8.5 7 Nordeste 10 Nordeste 0 -- -- 79
2019-06-01 06:00:00 9.8 6 Nordeste 11 Nordeste 0 -- -- 76
2019-06-01 05:00:00 11.4 9 Nordeste 12 Nordeste 0 -- -- 77
2019-06-01 04:00:00 11.4 9 Nordeste 12 Nordeste 0 -- -- 74
2019-06-01 03:00:00 12.3 6 Nordeste 10 Nordeste 0 -- -- 70
2019-06-01 02:00:00 14.3 6 Nordeste 11 Nordeste 0 -- -- 63
2019-06-01 01:00:00 16.2 7 Nordeste 18 Este 0 -- -- 57
2019-06-01 00:00:00 17.4 13 Este 15 Este 0 -- -- 50
2019-05-31 23:00:00 19.1 12 Este 19 Este 0 -- -- 43
2019-05-31 22:00:00 20.3 6 Este 17 Nordeste 0 -- -- 41
2019-05-31 21:00:00 28.6 4 Sur 11 Oeste 0 -- -- 23
2019-05-31 20:00:00 29.5 4 Sudoeste 14 Oeste 0 -- -- 21
2019-05-31 19:00:00 29.6 7 Sudoeste 17 Sudoeste 0 -- -- 23
2019-05-31 18:00:00 29.3 9 Noroeste 18 Sur 0 -- -- 23
2019-05-31 17:00:00 29 8 Noroeste 21 Noroeste 0 -- -- 25
2019-05-31 16:00:00 28 7 Norte 20 Nordeste 0 -- -- 25
2019-05-31 15:00:00 27.1 5 Noroeste 17 Noroeste 0 -- -- 27
2019-05-31 14:00:00 26 7 Noroeste 17 Sudoeste 0 -- -- 28
2019-05-31 13:00:00 24.8 7 Nordeste 18 Oeste 0 -- -- 29
2019-05-31 12:00:00 23.7 5 Sudoeste 15 Oeste 0 -- -- 32
2019-05-31 11:00:00 21.9 7 Oeste 12 Oeste 0 -- -- 41
2019-05-31 10:00:00 18.6 3 Norte 10 Nordeste 0 -- -- 48
2019-05-31 09:00:00 13.6 5 Nordeste 12 Nordeste 0 -- -- 65
2019-05-31 08:00:00 9.6 6 Nordeste 12 Nordeste 0 -- -- 80
2019-05-31 07:00:00 5.9 9 Nordeste 10 Nordeste 0 -- -- 90
2019-05-31 06:00:00 6.3 6 Nordeste 9 Este 0 -- -- 87
2019-05-31 05:00:00 6.9 9 Este 10 Nordeste 0 -- -- 88
2019-05-31 04:00:00 7.9 6 Este 9 Nordeste 0 -- -- 87
2019-05-31 03:00:00 9.5 6 Este 9 Nordeste 0 -- -- 81
2019-05-31 02:00:00 12.6 3 Este 11 Nordeste 0 -- -- 71
2019-05-31 01:00:00 15.9 9 Nordeste 17 Sudeste 0 -- -- 66
2019-05-31 00:00:00 17.3 11 Este 19 Este 0 -- -- 62
2019-05-30 23:00:00 18.9 9 Este 22 Este 0 -- -- 58
2019-05-30 22:00:00 21.4 13 Sudeste 23 Este 0 -- -- 52
2019-05-30 21:00:00 25.2 17 Este 27 Sudeste 0 -- -- 40
2019-05-30 20:00:00 27.1 13 Norte 23 Norte 0 -- -- 26
2019-05-30 19:00:00 28.1 5 Este 14 Noroeste 0 -- -- 30
2019-05-30 18:00:00 28.4 9 Noroeste 16 Sudoeste 0 -- -- 29
2019-05-30 17:00:00 27.7 9 Oeste 19 Sudoeste 0 -- -- 30
2019-05-30 16:00:00 26.9 6 Noroeste 19 Oeste 0 -- -- 32
2019-05-30 15:00:00 25 10 Oeste 22 Oeste 0 -- -- 32
2019-05-30 14:00:00 23.9 8 Sudoeste 18 Sudoeste 0 -- -- 33
2019-05-30 13:00:00 21.6 5 Noroeste 11 Norte 0 -- -- 37
2019-05-30 12:00:00 19.5 4 Norte 12 Oeste 0 -- -- 46
2019-05-30 11:00:00 17.2 4 Noroeste 12 Oeste 0 -- -- 58
2019-05-30 10:00:00 14.5 5 Noroeste 9 Noroeste 0 -- -- 64
2019-05-30 09:00:00 11.7 0 Calma 5 Nordeste 0 -- -- 77
2019-05-30 08:00:00 7.4 0 Calma 7 Nordeste 0 -- -- 90
2019-05-30 07:00:00 4.2 4 Este 8 Este 0 -- -- 90
2019-05-30 06:00:00 5 5 Nordeste 9 Este 0 -- -- 91
2019-05-30 05:00:00 4.4 4 Nordeste 8 Este 0 -- -- 91
2019-05-30 04:00:00 5.3 6 Este 9 Este 0 -- -- 89
2019-05-30 03:00:00 5.8 8 Nordeste 9 Este 0 -- -- 89
2019-05-30 02:00:00 7.7 3 Nordeste 5 Este 0 -- -- 83
2019-05-30 01:00:00 10 0 Calma 9 Sudeste 0 -- -- 77
2019-05-30 00:00:00 11.6 2 Sudeste 18 Este 0 -- -- 68
2019-05-29 23:00:00 14.9 13 Sudeste 20 Sudeste 0 -- -- 61
2019-05-29 22:00:00 17.2 15 Sudeste 23 Sudeste 0 -- -- 54
2019-05-29 21:00:00 21.2 10 Este 20 Nordeste 0 -- -- 44
2019-05-29 20:00:00 22.7 14 Nordeste 21 Norte 0 -- -- 32
2019-05-29 19:00:00 23.3 13 Nordeste 24 Nordeste 0 -- -- 34
2019-05-29 18:00:00 23.6 5 Sur 19 Oeste 0 -- -- 36
2019-05-29 17:00:00 22.9 10 Oeste 23 Oeste 0 -- -- 38
2019-05-29 16:00:00 21.3 9 Oeste 19 Oeste 0 -- -- 40
2019-05-29 15:00:00 20.3 8 Sudoeste 20 Sudoeste 0 -- -- 43
2019-05-29 14:00:00 19 10 Sur 21 Sur 0 -- -- 46
2019-05-29 13:00:00 17.1 6 Sudoeste 22 Sudoeste 0 -- -- 49
2019-05-29 12:00:00 15.1 6 Sudoeste 14 Oeste 0 -- -- 55
2019-05-29 11:00:00 12.7 6 Sudoeste 17 Sudoeste 0 -- -- 60
2019-05-29 10:00:00 10.5 5 Sudoeste 10 Sudoeste 0 -- -- 64
2019-05-29 09:00:00 8.5 5 Oeste 8 Oeste 0 -- -- 72
2019-05-29 08:00:00 5.4 2 Sudeste 5 Este 0 -- -- 85
2019-05-29 07:00:00 3.4 0 Calma 9 Este 0 -- -- 88
2019-05-29 06:00:00 3.4 6 Este 8 Este 0 -- -- 86
2019-05-29 05:00:00 3.3 5 Este 7 Este 0 -- -- 83
2019-05-29 04:00:00 4.4 2 Nordeste 8 Nordeste 0 -- -- 78
2019-05-29 03:00:00 5 0 Calma 11 Norte 0 -- -- 75
2019-05-29 02:00:00 6.9 7 Norte 14 Norte 0 -- -- 72
2019-05-29 01:00:00 7.8 10 Nordeste 17 Norte 0 -- -- 68
2019-05-29 00:00:00 8.7 11 Norte 21 Norte 0 -- -- 66
2019-05-28 23:00:00 9.9 9 Nordeste 19 Norte 0 -- -- 62
2019-05-28 22:00:00 11.7 4 Norte 24 Nordeste 0 -- -- 54
2019-05-28 21:00:00 14.2 15 Norte 29 Norte 0 -- -- 45
2019-05-28 20:00:00 15.9 19 Norte 35 Norte 0 -- -- 43
2019-05-28 19:00:00 17 20 Norte 37 Norte 0 -- -- 41
2019-05-28 18:00:00 17.3 23 Norte 36 Norte 0 -- -- 40
2019-05-28 17:00:00 17.7 20 Norte 38 Norte 0 -- -- 40
2019-05-28 16:00:00 17.8 23 Norte 35 Nordeste 0 -- -- 38
2019-05-28 15:00:00 17.5 24 Norte 39 Norte 0 -- -- 33
2019-05-28 14:00:00 16.8 19 Norte 32 Nordeste 0 -- -- 36
2019-05-28 13:00:00 16 19 Norte 34 Norte 0 -- -- 41
2019-05-28 12:00:00 14.9 20 Norte 29 Norte 0 -- -- 43
2019-05-28 11:00:00 13 7 Nordeste 17 Norte 0 -- -- 47
2019-05-28 10:00:00 10.6 6 Norte 13 Nordeste 0 -- -- 55
2019-05-28 09:00:00 7.6 2 Sur 7 Sur 0 -- -- 70
2019-05-28 08:00:00 2.8 2 Sur 6 Este 0 -- -- 91
2019-05-28 07:00:00 1 2 Sur 5 Este 0 -- -- 89
2019-05-28 06:00:00 2.1 3 Este 8 Sudeste 0 -- -- 89
2019-05-28 05:00:00 2.4 0 Calma 4 Sudeste 0 -- -- 87
2019-05-28 04:00:00 3.4 2 Sudeste 4 Este 0 -- -- 84
2019-05-28 03:00:00 4.6 3 Este 10 Este 0 -- -- 77
2019-05-28 02:00:00 5.1 6 Este 10 Este 0 -- -- 77
2019-05-28 01:00:00 6.6 6 Nordeste 9 Nordeste 0 -- -- 72
2019-05-28 00:00:00 8 4 Este 18 Nordeste 0 -- -- 65